sensor_id;sensor_type;location;lat;lon;timestamp;temperature;humidity
68804;SHT31;55787;52.678;13.314;2023-11-18T00:01:36;5.04;96.33
68804;SHT31;55787;52.678;13.314;2023-11-18T00:04:03;5.05;96.47
68804;SHT31;55787;52.678;13.314;2023-11-18T00:06:30;5.05;96.34
68804;SHT31;55787;52.678;13.314;2023-11-18T00:08:57;5.07;96.38
68804;SHT31;55787;52.678;13.314;2023-11-18T00:11:23;5.05;96.12
68804;SHT31;55787;52.678;13.314;2023-11-18T00:13:50;5.07;95.84
68804;SHT31;55787;52.678;13.314;2023-11-18T00:16:17;5.00;96.05
68804;SHT31;55787;52.678;13.314;2023-11-18T00:18:43;5.02;96.21
68804;SHT31;55787;52.678;13.314;2023-11-18T00:21:10;4.98;96.08
68804;SHT31;55787;52.678;13.314;2023-11-18T00:23:38;4.98;96.00
68804;SHT31;55787;52.678;13.314;2023-11-18T00:26:05;4.97;95.91
68804;SHT31;55787;52.678;13.314;2023-11-18T00:28:33;4.95;95.93
68804;SHT31;55787;52.678;13.314;2023-11-18T00:31:00;4.98;96.12
68804;SHT31;55787;52.678;13.314;2023-11-18T00:33:27;4.98;96.13
68804;SHT31;55787;52.678;13.314;2023-11-18T00:35:54;5.01;96.11
68804;SHT31;55787;52.678;13.314;2023-11-18T00:38:20;5.00;95.95
68804;SHT31;55787;52.678;13.314;2023-11-18T00:40:47;5.01;95.96
68804;SHT31;55787;52.678;13.314;2023-11-18T00:43:13;5.01;96.20
68804;SHT31;55787;52.678;13.314;2023-11-18T00:45:40;5.02;96.02
68804;SHT31;55787;52.678;13.314;2023-11-18T00:48:09;5.00;96.16
68804;SHT31;55787;52.678;13.314;2023-11-18T00:50:36;5.01;95.90
68804;SHT31;55787;52.678;13.314;2023-11-18T00:53:03;4.98;95.73
68804;SHT31;55787;52.678;13.314;2023-11-18T00:55:29;5.00;95.63
68804;SHT31;55787;52.678;13.314;2023-11-18T00:57:56;5.02;95.80
68804;SHT31;55787;52.678;13.314;2023-11-18T01:00:22;5.01;95.78
68804;SHT31;55787;52.678;13.314;2023-11-18T01:02:49;4.97;95.76
68804;SHT31;55787;52.678;13.314;2023-11-18T01:05:16;4.98;95.63
68804;SHT31;55787;52.678;13.314;2023-11-18T01:07:43;5.01;95.59
68804;SHT31;55787;52.678;13.314;2023-11-18T01:10:10;4.97;95.94
68804;SHT31;55787;52.678;13.314;2023-11-18T01:12:37;4.98;96.06
68804;SHT31;55787;52.678;13.314;2023-11-18T01:15:04;4.95;95.78
68804;SHT31;55787;52.678;13.314;2023-11-18T01:17:31;4.91;95.85
68804;SHT31;55787;52.678;13.314;2023-11-18T01:19:58;4.97;96.05
68804;SHT31;55787;52.678;13.314;2023-11-18T01:22:25;4.97;96.11
68804;SHT31;55787;52.678;13.314;2023-11-18T01:24:52;4.97;96.16
68804;SHT31;55787;52.678;13.314;2023-11-18T01:27:18;5.01;95.94
68804;SHT31;55787;52.678;13.314;2023-11-18T01:29:46;4.98;96.03
68804;SHT31;55787;52.678;13.314;2023-11-18T01:32:13;5.02;95.85
68804;SHT31;55787;52.678;13.314;2023-11-18T01:34:40;4.98;95.80
68804;SHT31;55787;52.678;13.314;2023-11-18T01:37:10;4.94;95.83
68804;SHT31;55787;52.678;13.314;2023-11-18T01:39:36;5.00;95.95
68804;SHT31;55787;52.678;13.314;2023-11-18T01:42:03;5.00;95.86
68804;SHT31;55787;52.678;13.314;2023-11-18T01:44:30;5.01;95.79
68804;SHT31;55787;52.678;13.314;2023-11-18T01:46:57;4.98;95.67
68804;SHT31;55787;52.678;13.314;2023-11-18T01:49:26;4.94;95.86
68804;SHT31;55787;52.678;13.314;2023-11-18T01:51:56;4.97;95.86
68804;SHT31;55787;52.678;13.314;2023-11-18T01:54:23;4.95;95.84
68804;SHT31;55787;52.678;13.314;2023-11-18T01:56:50;4.94;95.85
68804;SHT31;55787;52.678;13.314;2023-11-18T01:59:18;4.94;96.00
68804;SHT31;55787;52.678;13.314;2023-11-18T02:01:52;5.00;95.97
68804;SHT31;55787;52.678;13.314;2023-11-18T02:04:20;4.95;95.88
68804;SHT31;55787;52.678;13.314;2023-11-18T02:06:49;4.93;95.73
68804;SHT31;55787;52.678;13.314;2023-11-18T02:09:17;4.87;95.82
68804;SHT31;55787;52.678;13.314;2023-11-18T02:12:19;4.91;95.97
68804;SHT31;55787;52.678;13.314;2023-11-18T02:14:48;4.87;95.79
68804;SHT31;55787;52.678;13.314;2023-11-18T02:17:18;4.90;95.77
68804;SHT31;55787;52.678;13.314;2023-11-18T02:19:46;4.85;96.01
68804;SHT31;55787;52.678;13.314;2023-11-18T02:22:13;4.87;95.96
68804;SHT31;55787;52.678;13.314;2023-11-18T02:24:40;4.88;95.95
68804;SHT31;55787;52.678;13.314;2023-11-18T02:27:08;4.94;95.91
68804;SHT31;55787;52.678;13.314;2023-11-18T02:29:40;4.95;95.62
68804;SHT31;55787;52.678;13.314;2023-11-18T02:35:23;4.91;96.00
68804;SHT31;55787;52.678;13.314;2023-11-18T02:37:53;4.87;95.87
68804;SHT31;55787;52.678;13.314;2023-11-18T02:40:36;4.87;96.21
68804;SHT31;55787;52.678;13.314;2023-11-18T02:43:04;4.90;96.10
68804;SHT31;55787;52.678;13.314;2023-11-18T02:45:36;4.85;96.24
68804;SHT31;55787;52.678;13.314;2023-11-18T02:48:04;4.88;96.26
68804;SHT31;55787;52.678;13.314;2023-11-18T02:50:34;4.84;96.11
68804;SHT31;55787;52.678;13.314;2023-11-18T02:53:02;4.83;96.02
68804;SHT31;55787;52.678;13.314;2023-11-18T02:55:29;4.81;96.33
68804;SHT31;55787;52.678;13.314;2023-11-18T02:57:56;4.80;96.45
68804;SHT31;55787;52.678;13.314;2023-11-18T03:00:23;4.85;96.49
68804;SHT31;55787;52.678;13.314;2023-11-18T03:02:50;4.83;96.27
68804;SHT31;55787;52.678;13.314;2023-11-18T03:05:18;4.77;96.33
68804;SHT31;55787;52.678;13.314;2023-11-18T03:07:45;4.76;96.45
68804;SHT31;55787;52.678;13.314;2023-11-18T03:10:16;4.77;96.46
68804;SHT31;55787;52.678;13.314;2023-11-18T03:12:52;4.77;96.47
68804;SHT31;55787;52.678;13.314;2023-11-18T03:15:20;4.76;96.33
68804;SHT31;55787;52.678;13.314;2023-11-18T03:17:49;4.76;96.48
68804;SHT31;55787;52.678;13.314;2023-11-18T03:20:18;4.73;95.92
68804;SHT31;55787;52.678;13.314;2023-11-18T03:22:45;4.76;96.17
68804;SHT31;55787;52.678;13.314;2023-11-18T03:25:13;4.76;96.22
68804;SHT31;55787;52.678;13.314;2023-11-18T03:27:40;4.79;96.21
68804;SHT31;55787;52.678;13.314;2023-11-18T03:30:08;4.77;96.10
68804;SHT31;55787;52.678;13.314;2023-11-18T03:32:36;4.74;96.03
68804;SHT31;55787;52.678;13.314;2023-11-18T03:35:07;4.67;95.86
68804;SHT31;55787;52.678;13.314;2023-11-18T03:37:36;4.56;96.17
68804;SHT31;55787;52.678;13.314;2023-11-18T03:40:09;4.53;96.42
68804;SHT31;55787;52.678;13.314;2023-11-18T03:42:36;4.49;96.50
68804;SHT31;55787;52.678;13.314;2023-11-18T03:45:04;4.45;96.72
68804;SHT31;55787;52.678;13.314;2023-11-18T03:47:31;4.45;96.79
68804;SHT31;55787;52.678;13.314;2023-11-18T03:49:58;4.42;96.81
68804;SHT31;55787;52.678;13.314;2023-11-18T03:52:25;4.35;97.00
68804;SHT31;55787;52.678;13.314;2023-11-18T03:54:52;4.33;97.18
68804;SHT31;55787;52.678;13.314;2023-11-18T03:57:18;4.31;97.22
68804;SHT31;55787;52.678;13.314;2023-11-18T03:59:45;4.31;97.25
68804;SHT31;55787;52.678;13.314;2023-11-18T04:02:12;4.25;97.32
68804;SHT31;55787;52.678;13.314;2023-11-18T04:04:38;4.22;97.37
68804;SHT31;55787;52.678;13.314;2023-11-18T04:07:05;4.16;97.52
68804;SHT31;55787;52.678;13.314;2023-11-18T04:09:33;4.16;97.76
68804;SHT31;55787;52.678;13.314;2023-11-18T04:11:59;4.16;98.06
68804;SHT31;55787;52.678;13.314;2023-11-18T04:14:26;4.15;97.95
68804;SHT31;55787;52.678;13.314;2023-11-18T04:16:53;4.03;97.70
68804;SHT31;55787;52.678;13.314;2023-11-18T04:19:21;3.94;97.70
68804;SHT31;55787;52.678;13.314;2023-11-18T04:21:47;3.82;97.87
68804;SHT31;55787;52.678;13.314;2023-11-18T04:24:15;3.74;98.38
68804;SHT31;55787;52.678;13.314;2023-11-18T04:26:42;3.71;98.36
68804;SHT31;55787;52.678;13.314;2023-11-18T04:29:08;3.71;98.68
68804;SHT31;55787;52.678;13.314;2023-11-18T04:31:35;3.78;99.13
68804;SHT31;55787;52.678;13.314;2023-11-18T04:34:03;3.85;99.22
68804;SHT31;55787;52.678;13.314;2023-11-18T04:36:31;3.92;99.27
68804;SHT31;55787;52.678;13.314;2023-11-18T04:38:57;4.01;99.25
68804;SHT31;55787;52.678;13.314;2023-11-18T04:41:24;4.09;98.90
68804;SHT31;55787;52.678;13.314;2023-11-18T04:43:50;4.19;98.71
68804;SHT31;55787;52.678;13.314;2023-11-18T04:46:17;4.26;98.38
68804;SHT31;55787;52.678;13.314;2023-11-18T04:48:45;4.26;98.30
68804;SHT31;55787;52.678;13.314;2023-11-18T04:51:12;4.28;98.26
68804;SHT31;55787;52.678;13.314;2023-11-18T04:53:39;4.25;98.22
68804;SHT31;55787;52.678;13.314;2023-11-18T04:56:06;4.28;98.16
68804;SHT31;55787;52.678;13.314;2023-11-18T04:58:39;4.32;98.07
68804;SHT31;55787;52.678;13.314;2023-11-18T05:01:07;4.28;97.89
68804;SHT31;55787;52.678;13.314;2023-11-18T05:03:35;4.25;98.00
68804;SHT31;55787;52.678;13.314;2023-11-18T05:06:02;4.25;98.10
68804;SHT31;55787;52.678;13.314;2023-11-18T05:08:30;4.23;98.16
68804;SHT31;55787;52.678;13.314;2023-11-18T05:10:57;4.23;98.28
68804;SHT31;55787;52.678;13.314;2023-11-18T05:13:24;4.29;98.30
68804;SHT31;55787;52.678;13.314;2023-11-18T05:15:52;4.31;98.26
68804;SHT31;55787;52.678;13.314;2023-11-18T05:18:20;4.35;98.00
68804;SHT31;55787;52.678;13.314;2023-11-18T05:20:47;4.32;97.89
68804;SHT31;55787;52.678;13.314;2023-11-18T05:23:14;4.36;97.83
68804;SHT31;55787;52.678;13.314;2023-11-18T05:25:42;4.36;97.83
68804;SHT31;55787;52.678;13.314;2023-11-18T05:28:10;4.35;97.86
68804;SHT31;55787;52.678;13.314;2023-11-18T05:30:38;4.32;97.76
68804;SHT31;55787;52.678;13.314;2023-11-18T05:33:05;4.31;97.78
68804;SHT31;55787;52.678;13.314;2023-11-18T05:35:33;4.26;97.74
68804;SHT31;55787;52.678;13.314;2023-11-18T05:37:59;4.22;97.74
68804;SHT31;55787;52.678;13.314;2023-11-18T05:40:26;4.19;97.96
68804;SHT31;55787;52.678;13.314;2023-11-18T05:42:55;4.11;98.07
68804;SHT31;55787;52.678;13.314;2023-11-18T05:45:24;4.01;97.87
68804;SHT31;55787;52.678;13.314;2023-11-18T05:48:03;3.92;98.01
68804;SHT31;55787;52.678;13.314;2023-11-18T05:50:30;3.80;98.28
68804;SHT31;55787;52.678;13.314;2023-11-18T05:52:57;3.71;98.44
68804;SHT31;55787;52.678;13.314;2023-11-18T05:55:24;3.59;98.29
68804;SHT31;55787;52.678;13.314;2023-11-18T05:57:50;3.47;98.57
68804;SHT31;55787;52.678;13.314;2023-11-18T06:00:18;3.53;99.68
68804;SHT31;55787;52.678;13.314;2023-11-18T06:02:56;3.54;99.50
68804;SHT31;55787;52.678;13.314;2023-11-18T06:05:22;3.53;99.53
68804;SHT31;55787;52.678;13.314;2023-11-18T06:07:52;3.47;99.27
68804;SHT31;55787;52.678;13.314;2023-11-18T06:10:20;3.49;99.75
68804;SHT31;55787;52.678;13.314;2023-11-18T06:12:47;3.46;99.49
68804;SHT31;55787;52.678;13.314;2023-11-18T06:15:13;3.37;99.59
68804;SHT31;55787;52.678;13.314;2023-11-18T06:17:43;3.27;99.51
68804;SHT31;55787;52.678;13.314;2023-11-18T06:20:10;3.32;99.81
68804;SHT31;55787;52.678;13.314;2023-11-18T06:22:37;3.32;99.99
68804;SHT31;55787;52.678;13.314;2023-11-18T06:25:04;3.41;99.99
68804;SHT31;55787;52.678;13.314;2023-11-18T06:27:33;3.50;99.99
68804;SHT31;55787;52.678;13.314;2023-11-18T06:30:00;3.56;99.99
68804;SHT31;55787;52.678;13.314;2023-11-18T06:32:27;3.63;99.99
68804;SHT31;55787;52.678;13.314;2023-11-18T06:34:53;3.73;99.96
68804;SHT31;55787;52.678;13.314;2023-11-18T06:37:21;3.81;99.86
68804;SHT31;55787;52.678;13.314;2023-11-18T06:39:48;3.78;99.48
68804;SHT31;55787;52.678;13.314;2023-11-18T06:42:15;3.80;99.40
68804;SHT31;55787;52.678;13.314;2023-11-18T06:44:41;3.90;98.98
68804;SHT31;55787;52.678;13.314;2023-11-18T06:47:08;3.90;98.94
68804;SHT31;55787;52.678;13.314;2023-11-18T06:49:35;3.97;98.78
68804;SHT31;55787;52.678;13.314;2023-11-18T06:52:03;4.01;98.67
68804;SHT31;55787;52.678;13.314;2023-11-18T06:54:30;4.01;98.56
68804;SHT31;55787;52.678;13.314;2023-11-18T06:56:59;4.02;98.23
68804;SHT31;55787;52.678;13.314;2023-11-18T06:59:26;4.05;98.50
68804;SHT31;55787;52.678;13.314;2023-11-18T07:01:53;4.06;98.50
68804;SHT31;55787;52.678;13.314;2023-11-18T07:04:20;4.09;98.34
68804;SHT31;55787;52.678;13.314;2023-11-18T07:06:46;4.09;98.28
68804;SHT31;55787;52.678;13.314;2023-11-18T07:09:13;4.09;98.30
68804;SHT31;55787;52.678;13.314;2023-11-18T07:11:44;4.12;98.37
68804;SHT31;55787;52.678;13.314;2023-11-18T07:14:11;4.21;98.28
68804;SHT31;55787;52.678;13.314;2023-11-18T07:16:39;4.23;98.09
68804;SHT31;55787;52.678;13.314;2023-11-18T07:19:07;4.22;97.76
68804;SHT31;55787;52.678;13.314;2023-11-18T07:21:34;4.19;97.66
68804;SHT31;55787;52.678;13.314;2023-11-18T07:24:01;4.09;97.74
68804;SHT31;55787;52.678;13.314;2023-11-18T07:26:29;4.06;97.88
68804;SHT31;55787;52.678;13.314;2023-11-18T07:28:56;4.11;98.28
68804;SHT31;55787;52.678;13.314;2023-11-18T07:31:23;4.16;98.22
68804;SHT31;55787;52.678;13.314;2023-11-18T07:33:51;4.22;98.21
68804;SHT31;55787;52.678;13.314;2023-11-18T07:36:19;4.25;98.09
68804;SHT31;55787;52.678;13.314;2023-11-18T07:38:47;4.29;98.06
68804;SHT31;55787;52.678;13.314;2023-11-18T07:41:13;4.35;97.86
68804;SHT31;55787;52.678;13.314;2023-11-18T07:43:53;4.39;97.79
68804;SHT31;55787;52.678;13.314;2023-11-18T07:46:22;4.39;97.60
68804;SHT31;55787;52.678;13.314;2023-11-18T07:48:50;4.48;97.58
68804;SHT31;55787;52.678;13.314;2023-11-18T07:51:18;4.49;97.41
68804;SHT31;55787;52.678;13.314;2023-11-18T07:53:48;4.62;97.27
68804;SHT31;55787;52.678;13.314;2023-11-18T07:56:15;4.66;97.10
68804;SHT31;55787;52.678;13.314;2023-11-18T07:58:43;4.74;96.82
68804;SHT31;55787;52.678;13.314;2023-11-18T08:01:12;4.77;95.62
68804;SHT31;55787;52.678;13.314;2023-11-18T08:03:39;4.87;95.56
68804;SHT31;55787;52.678;13.314;2023-11-18T08:06:08;5.08;95.49
68804;SHT31;55787;52.678;13.314;2023-11-18T08:08:35;5.31;95.13
68804;SHT31;55787;52.678;13.314;2023-11-18T08:11:10;5.41;93.44
68804;SHT31;55787;52.678;13.314;2023-11-18T08:13:37;5.48;93.65
68804;SHT31;55787;52.678;13.314;2023-11-18T08:16:03;5.46;93.06
68804;SHT31;55787;52.678;13.314;2023-11-18T08:18:30;5.52;93.47
68804;SHT31;55787;52.678;13.314;2023-11-18T08:20:58;5.46;93.30
68804;SHT31;55787;52.678;13.314;2023-11-18T08:23:26;5.46;93.11
68804;SHT31;55787;52.678;13.314;2023-11-18T08:25:55;5.43;93.17
68804;SHT31;55787;52.678;13.314;2023-11-18T08:28:22;5.51;93.22
68804;SHT31;55787;52.678;13.314;2023-11-18T08:30:49;5.56;93.12
68804;SHT31;55787;52.678;13.314;2023-11-18T08:33:19;5.66;93.35
68804;SHT31;55787;52.678;13.314;2023-11-18T08:35:46;5.73;92.74
68804;SHT31;55787;52.678;13.314;2023-11-18T08:38:12;5.92;91.55
68804;SHT31;55787;52.678;13.314;2023-11-18T08:40:39;6.11;91.47
68804;SHT31;55787;52.678;13.314;2023-11-18T08:43:06;6.23;90.72
68804;SHT31;55787;52.678;13.314;2023-11-18T08:45:34;6.35;90.75
68804;SHT31;55787;52.678;13.314;2023-11-18T08:48:03;6.59;90.43
68804;SHT31;55787;52.678;13.314;2023-11-18T08:50:35;6.76;88.34
68804;SHT31;55787;52.678;13.314;2023-11-18T08:53:02;7.03;88.02
68804;SHT31;55787;52.678;13.314;2023-11-18T08:55:32;7.19;86.47
68804;SHT31;55787;52.678;13.314;2023-11-18T08:58:17;7.28;86.47
68804;SHT31;55787;52.678;13.314;2023-11-18T09:00:58;7.46;85.64
68804;SHT31;55787;52.678;13.314;2023-11-18T09:03:33;7.46;85.82
68804;SHT31;55787;52.678;13.314;2023-11-18T09:06:04;7.46;86.27
68804;SHT31;55787;52.678;13.314;2023-11-18T09:08:34;7.44;85.54
68804;SHT31;55787;52.678;13.314;2023-11-18T09:11:06;7.43;85.14
68804;SHT31;55787;52.678;13.314;2023-11-18T09:13:34;7.37;85.67
68804;SHT31;55787;52.678;13.314;2023-11-18T09:16:03;7.33;85.53
68804;SHT31;55787;52.678;13.314;2023-11-18T09:18:30;7.20;85.47
68804;SHT31;55787;52.678;13.314;2023-11-18T09:21:00;7.23;85.70
68804;SHT31;55787;52.678;13.314;2023-11-18T09:23:29;7.17;85.67
68804;SHT31;55787;52.678;13.314;2023-11-18T09:25:56;7.26;85.94
68804;SHT31;55787;52.678;13.314;2023-11-18T09:28:23;7.23;85.89
68804;SHT31;55787;52.678;13.314;2023-11-18T09:30:55;7.12;86.19
68804;SHT31;55787;52.678;13.314;2023-11-18T09:33:25;7.13;86.76
68804;SHT31;55787;52.678;13.314;2023-11-18T09:35:53;7.06;87.08
68804;SHT31;55787;52.678;13.314;2023-11-18T09:40:55;6.89;86.81
68804;SHT31;55787;52.678;13.314;2023-11-18T09:43:24;6.89;86.68
68804;SHT31;55787;52.678;13.314;2023-11-18T09:45:55;6.88;85.62
68804;SHT31;55787;52.678;13.314;2023-11-18T09:48:22;7.22;85.31
68804;SHT31;55787;52.678;13.314;2023-11-18T09:50:52;7.57;84.71
68804;SHT31;55787;52.678;13.314;2023-11-18T09:53:20;7.48;82.21
68804;SHT31;55787;52.678;13.314;2023-11-18T09:55:59;7.51;83.71
68804;SHT31;55787;52.678;13.314;2023-11-18T09:58:47;7.88;82.38
68804;SHT31;55787;52.678;13.314;2023-11-18T10:01:16;7.70;82.44
68804;SHT31;55787;52.678;13.314;2023-11-18T10:03:45;7.94;82.10
68804;SHT31;55787;52.678;13.314;2023-11-18T10:06:13;7.16;83.06
68804;SHT31;55787;52.678;13.314;2023-11-18T10:08:43;7.63;83.23
68804;SHT31;55787;52.678;13.314;2023-11-18T10:11:12;8.02;83.48
68804;SHT31;55787;52.678;13.314;2023-11-18T10:13:40;8.01;82.27
68804;SHT31;55787;52.678;13.314;2023-11-18T10:16:08;8.01;82.31
68804;SHT31;55787;52.678;13.314;2023-11-18T10:18:35;7.88;82.55
68804;SHT31;55787;52.678;13.314;2023-11-18T10:21:03;7.65;82.61
68804;SHT31;55787;52.678;13.314;2023-11-18T10:23:38;7.50;82.68
68804;SHT31;55787;52.678;13.314;2023-11-18T10:26:05;7.46;83.18
68804;SHT31;55787;52.678;13.314;2023-11-18T10:28:35;7.67;84.02
68804;SHT31;55787;52.678;13.314;2023-11-18T10:31:06;7.91;82.22
68804;SHT31;55787;52.678;13.314;2023-11-18T10:33:37;8.06;80.90
68804;SHT31;55787;52.678;13.314;2023-11-18T10:36:05;8.25;78.91
68804;SHT31;55787;52.678;13.314;2023-11-18T10:38:40;8.32;79.98
68804;SHT31;55787;52.678;13.314;2023-11-18T10:41:16;8.28;80.78
68804;SHT31;55787;52.678;13.314;2023-11-18T10:43:45;8.29;80.77
68804;SHT31;55787;52.678;13.314;2023-11-18T10:46:17;8.13;80.98
68804;SHT31;55787;52.678;13.314;2023-11-18T10:48:48;7.92;81.30
68804;SHT31;55787;52.678;13.314;2023-11-18T10:51:17;7.68;82.78
68804;SHT31;55787;52.678;13.314;2023-11-18T10:53:51;7.47;83.10
68804;SHT31;55787;52.678;13.314;2023-11-18T10:56:30;7.16;83.15
68804;SHT31;55787;52.678;13.314;2023-11-18T10:59:04;7.04;82.66
68804;SHT31;55787;52.678;13.314;2023-11-18T11:01:36;7.03;83.40
68804;SHT31;55787;52.678;13.314;2023-11-18T11:04:10;7.03;84.28
68804;SHT31;55787;52.678;13.314;2023-11-18T11:06:57;6.99;84.04
68804;SHT31;55787;52.678;13.314;2023-11-18T11:09:24;6.92;83.05
68804;SHT31;55787;52.678;13.314;2023-11-18T11:11:59;6.86;83.44
68804;SHT31;55787;52.678;13.314;2023-11-18T11:14:38;6.71;83.27
68804;SHT31;55787;52.678;13.314;2023-11-18T11:17:12;6.55;83.25
68804;SHT31;55787;52.678;13.314;2023-11-18T11:19:57;6.41;84.26
68804;SHT31;55787;52.678;13.314;2023-11-18T11:25:37;6.67;85.18
68804;SHT31;55787;52.678;13.314;2023-11-18T11:28:15;6.67;84.98
68804;SHT31;55787;52.678;13.314;2023-11-18T11:30:46;6.75;85.37
68804;SHT31;55787;52.678;13.314;2023-11-18T11:33:29;6.75;85.61
68804;SHT31;55787;52.678;13.314;2023-11-18T11:36:11;6.82;85.06
68804;SHT31;55787;52.678;13.314;2023-11-18T11:38:38;6.79;84.82
68804;SHT31;55787;52.678;13.314;2023-11-18T11:41:05;6.76;85.37
68804;SHT31;55787;52.678;13.314;2023-11-18T11:43:34;6.72;86.02
68804;SHT31;55787;52.678;13.314;2023-11-18T11:46:02;6.78;86.14
68804;SHT31;55787;52.678;13.314;2023-11-18T11:48:38;6.81;86.26
68804;SHT31;55787;52.678;13.314;2023-11-18T11:54:24;6.72;85.02
68804;SHT31;55787;52.678;13.314;2023-11-18T11:56:56;6.62;84.57
68804;SHT31;55787;52.678;13.314;2023-11-18T11:59:54;6.65;85.29
68804;SHT31;55787;52.678;13.314;2023-11-18T12:02:23;6.62;85.70
68804;SHT31;55787;52.678;13.314;2023-11-18T12:04:56;6.56;86.19
68804;SHT31;55787;52.678;13.314;2023-11-18T12:07:25;6.49;86.13
68804;SHT31;55787;52.678;13.314;2023-11-18T12:09:58;6.49;85.92
68804;SHT31;55787;52.678;13.314;2023-11-18T12:12:26;6.44;85.87
68804;SHT31;55787;52.678;13.314;2023-11-18T12:14:54;6.17;86.27
68804;SHT31;55787;52.678;13.314;2023-11-18T12:17:23;6.25;86.74
68804;SHT31;55787;52.678;13.314;2023-11-18T12:19:55;6.04;86.19
68804;SHT31;55787;52.678;13.314;2023-11-18T12:23:03;6.11;86.71
68804;SHT31;55787;52.678;13.314;2023-11-18T12:25:32;6.20;86.49
68804;SHT31;55787;52.678;13.314;2023-11-18T12:28:07;6.09;86.65
68804;SHT31;55787;52.678;13.314;2023-11-18T12:33:04;5.89;85.87
68804;SHT31;55787;52.678;13.314;2023-11-18T12:38:51;5.96;85.69
68804;SHT31;55787;52.678;13.314;2023-11-18T12:41:36;5.93;85.59
68804;SHT31;55787;52.678;13.314;2023-11-18T12:44:29;6.04;85.59
68804;SHT31;55787;52.678;13.314;2023-11-18T12:47:02;6.18;85.40
68804;SHT31;55787;52.678;13.314;2023-11-18T12:49:42;6.32;85.75
68804;SHT31;55787;52.678;13.314;2023-11-18T12:52:12;6.30;84.70
68804;SHT31;55787;52.678;13.314;2023-11-18T12:54:46;6.34;85.06
68804;SHT31;55787;52.678;13.314;2023-11-18T12:57:20;6.24;84.60
68804;SHT31;55787;52.678;13.314;2023-11-18T12:59:49;6.31;85.34
68804;SHT31;55787;52.678;13.314;2023-11-18T13:02:16;6.42;84.36
68804;SHT31;55787;52.678;13.314;2023-11-18T13:04:46;6.56;85.11
68804;SHT31;55787;52.678;13.314;2023-11-18T13:07:17;6.61;84.93
68804;SHT31;55787;52.678;13.314;2023-11-18T13:09:44;6.55;83.66
68804;SHT31;55787;52.678;13.314;2023-11-18T13:12:14;6.54;83.42
68804;SHT31;55787;52.678;13.314;2023-11-18T13:14:46;6.49;84.03
68804;SHT31;55787;52.678;13.314;2023-11-18T13:17:15;6.30;83.57
68804;SHT31;55787;52.678;13.314;2023-11-18T13:19:43;6.18;84.43
68804;SHT31;55787;52.678;13.314;2023-11-18T13:22:12;6.17;84.37
68804;SHT31;55787;52.678;13.314;2023-11-18T13:24:40;6.18;84.40
68804;SHT31;55787;52.678;13.314;2023-11-18T13:27:08;6.24;84.80
68804;SHT31;55787;52.678;13.314;2023-11-18T13:29:36;6.17;84.06
68804;SHT31;55787;52.678;13.314;2023-11-18T13:32:06;6.18;84.68
68804;SHT31;55787;52.678;13.314;2023-11-18T13:34:33;6.20;84.45
68804;SHT31;55787;52.678;13.314;2023-11-18T13:37:05;6.16;84.24
68804;SHT31;55787;52.678;13.314;2023-11-18T13:39:33;6.11;84.60
68804;SHT31;55787;52.678;13.314;2023-11-18T13:42:23;6.31;85.48
68804;SHT31;55787;52.678;13.314;2023-11-18T13:44:50;6.30;84.08
68804;SHT31;55787;52.678;13.314;2023-11-18T13:47:20;6.31;83.63
68804;SHT31;55787;52.678;13.314;2023-11-18T13:49:49;6.07;82.99
68804;SHT31;55787;52.678;13.314;2023-11-18T13:52:17;6.02;83.36
68804;SHT31;55787;52.678;13.314;2023-11-18T13:54:46;5.90;83.90
68804;SHT31;55787;52.678;13.314;2023-11-18T13:57:14;5.73;83.92
68804;SHT31;55787;52.678;13.314;2023-11-18T13:59:40;5.70;84.37
68804;SHT31;55787;52.678;13.314;2023-11-18T14:02:11;5.59;84.84
68804;SHT31;55787;52.678;13.314;2023-11-18T14:04:39;5.53;84.70
68804;SHT31;55787;52.678;13.314;2023-11-18T14:07:06;5.62;86.54
68804;SHT31;55787;52.678;13.314;2023-11-18T14:09:35;5.55;85.58
68804;SHT31;55787;52.678;13.314;2023-11-18T14:12:07;5.52;86.52
68804;SHT31;55787;52.678;13.314;2023-11-18T14:14:34;5.41;87.59
68804;SHT31;55787;52.678;13.314;2023-11-18T14:17:01;5.27;87.51
68804;SHT31;55787;52.678;13.314;2023-11-18T14:19:28;5.07;88.23
68804;SHT31;55787;52.678;13.314;2023-11-18T14:21:58;4.94;88.45
68804;SHT31;55787;52.678;13.314;2023-11-18T14:24:24;4.74;89.13
68804;SHT31;55787;52.678;13.314;2023-11-18T14:26:54;4.64;89.80
68804;SHT31;55787;52.678;13.314;2023-11-18T14:29:23;4.50;90.20
68804;SHT31;55787;52.678;13.314;2023-11-18T14:31:54;4.33;90.55
68804;SHT31;55787;52.678;13.314;2023-11-18T14:34:21;4.19;90.84
68804;SHT31;55787;52.678;13.314;2023-11-18T14:36:47;4.09;91.52
68804;SHT31;55787;52.678;13.314;2023-11-18T14:39:15;3.95;91.46
68804;SHT31;55787;52.678;13.314;2023-11-18T14:41:47;3.88;91.93
68804;SHT31;55787;52.678;13.314;2023-11-18T14:44:14;3.84;92.38
68804;SHT31;55787;52.678;13.314;2023-11-18T14:46:41;3.82;92.83
68804;SHT31;55787;52.678;13.314;2023-11-18T14:49:08;3.78;93.25
68804;SHT31;55787;52.678;13.314;2023-11-18T14:51:36;3.74;93.28
68804;SHT31;55787;52.678;13.314;2023-11-18T14:54:03;3.73;93.11
68804;SHT31;55787;52.678;13.314;2023-11-18T14:56:32;3.69;93.22
68804;SHT31;55787;52.678;13.314;2023-11-18T14:58:58;3.70;94.09
68804;SHT31;55787;52.678;13.314;2023-11-18T15:01:26;3.67;94.05
68804;SHT31;55787;52.678;13.314;2023-11-18T15:03:53;3.67;93.95
68804;SHT31;55787;52.678;13.314;2023-11-18T15:06:26;3.66;94.07
68804;SHT31;55787;52.678;13.314;2023-11-18T15:08:53;3.64;94.46
68804;SHT31;55787;52.678;13.314;2023-11-18T15:11:23;3.69;94.35
68804;SHT31;55787;52.678;13.314;2023-11-18T15:13:51;3.73;94.49
68804;SHT31;55787;52.678;13.314;2023-11-18T15:16:20;3.73;94.44
68804;SHT31;55787;52.678;13.314;2023-11-18T15:18:46;3.80;94.88
68804;SHT31;55787;52.678;13.314;2023-11-18T15:21:14;3.80;94.39
68804;SHT31;55787;52.678;13.314;2023-11-18T15:23:42;3.82;94.44
68804;SHT31;55787;52.678;13.314;2023-11-18T15:26:08;3.84;94.77
68804;SHT31;55787;52.678;13.314;2023-11-18T15:28:36;3.88;95.08
68804;SHT31;55787;52.678;13.314;2023-11-18T15:31:03;3.91;94.76
68804;SHT31;55787;52.678;13.314;2023-11-18T15:33:30;3.91;94.81
68804;SHT31;55787;52.678;13.314;2023-11-18T15:35:58;3.91;94.70
68804;SHT31;55787;52.678;13.314;2023-11-18T15:38:25;3.88;94.58
68804;SHT31;55787;52.678;13.314;2023-11-18T15:40:52;3.90;94.92
68804;SHT31;55787;52.678;13.314;2023-11-18T15:43:19;3.91;94.85
68804;SHT31;55787;52.678;13.314;2023-11-18T15:45:46;3.92;94.91
68804;SHT31;55787;52.678;13.314;2023-11-18T15:48:13;3.92;95.08
68804;SHT31;55787;52.678;13.314;2023-11-18T15:50:41;3.98;95.33
68804;SHT31;55787;52.678;13.314;2023-11-18T15:53:08;3.99;95.31
68804;SHT31;55787;52.678;13.314;2023-11-18T15:55:35;4.05;95.18
68804;SHT31;55787;52.678;13.314;2023-11-18T15:58:04;4.05;95.14
68804;SHT31;55787;52.678;13.314;2023-11-18T16:00:31;4.09;95.20